createdAt,value
2018-11-05T00:00:07.592Z,0
2018-11-05T00:01:07.668Z,0
2018-11-05T00:02:08.742Z,0
2018-11-05T00:03:08.991Z,0
2018-11-05T00:04:10.065Z,0
2018-11-05T00:05:10.581Z,0
2018-11-05T00:06:11.711Z,0
2018-11-05T00:07:12.227Z,0
2018-11-05T00:08:13.583Z,0
2018-11-05T00:09:14.652Z,0
2018-11-05T00:10:16.003Z,0
2018-11-05T00:11:17.077Z,0
2018-11-05T00:12:17.873Z,0
2018-11-05T00:13:19.016Z,0
2018-11-05T00:14:20.104Z,0
2018-11-05T00:15:20.460Z,0
2018-11-05T00:16:21.813Z,0
2018-11-05T00:17:22.609Z,0
2018-11-05T00:18:23.237Z,0
2018-11-05T00:19:23.588Z,0
2018-11-05T00:20:24.387Z,0
2018-11-05T00:21:25.470Z,0
2018-11-05T00:22:26.545Z,0
2018-11-05T00:23:27.517Z,0
2018-11-05T00:24:29.312Z,0
2018-11-05T00:25:29.665Z,0
2018-11-05T00:26:30.739Z,0
2018-11-05T00:27:31.819Z,0
2018-11-05T00:28:32.339Z,0
2018-11-05T00:29:33.415Z,0
2018-11-05T00:30:34.494Z,0
2018-11-05T00:31:34.848Z,0
2018-11-05T00:32:35.640Z,0
2018-11-05T00:33:36.331Z,0
2018-11-05T00:34:36.962Z,0
2018-11-05T00:35:37.594Z,0
2018-11-05T00:36:38.389Z,0
2018-11-05T00:37:38.464Z,0
2018-11-05T00:38:39.536Z,0
2018-11-05T00:39:40.168Z,0
2018-11-05T00:40:40.967Z,0
2018-11-05T00:41:41.602Z,0
2018-11-05T00:42:42.117Z,0
2018-11-05T00:43:43.649Z,0
2018-11-05T00:44:44.165Z,0
2018-11-05T00:45:47.308Z,0
2018-11-05T00:46:47.300Z,0
2018-11-05T00:47:48.933Z,0
2018-11-05T00:48:48.456Z,0
2018-11-05T00:49:49.542Z,0
2018-11-05T00:50:50.610Z,0
2018-11-05T00:51:51.436Z,0
2018-11-05T00:52:52.509Z,0
2018-11-05T00:53:53.318Z,0
2018-11-05T00:54:53.557Z,0
2018-11-05T00:55:55.362Z,0
2018-11-05T00:56:56.817Z,0
2018-11-05T00:57:57.339Z,0
2018-11-05T00:58:58.140Z,0
2018-11-05T00:59:59.272Z,0
2018-11-05T01:00:59.791Z,0
2018-11-05T01:02:00.868Z,0
2018-11-05T01:03:01.457Z,0
2018-11-05T01:04:02.987Z,0
2018-11-05T01:05:03.506Z,0
2018-11-05T01:06:04.578Z,0
2018-11-05T01:07:05.654Z,0
2018-11-05T01:08:06.449Z,0
2018-11-05T01:09:07.260Z,0
2018-11-05T01:10:07.618Z,0
2018-11-05T01:11:08.414Z,0
2018-11-05T01:12:09.511Z,0
2018-11-05T01:13:09.585Z,0
2018-11-05T01:14:10.555Z,0
2018-11-05T01:15:12.357Z,0
2018-11-05T01:16:12.875Z,0
2018-11-05T01:17:14.232Z,0
2018-11-05T01:18:14.474Z,0
2018-11-05T01:19:15.271Z,0
2018-11-05T01:20:16.071Z,0
2018-11-05T01:21:16.868Z,0
2018-11-05T01:22:17.661Z,0
2018-11-05T01:23:18.738Z,0
2018-11-05T01:24:19.827Z,0
2018-11-05T01:25:20.616Z,0
2018-11-05T01:26:21.966Z,0
2018-11-05T01:27:22.318Z,0
2018-11-05T01:28:22.406Z,0
2018-11-05T01:29:22.766Z,0
2018-11-05T01:30:24.834Z,0
2018-11-05T01:31:25.463Z,0
2018-11-05T01:32:26.533Z,0
2018-11-05T01:33:27.053Z,0
2018-11-05T01:34:27.887Z,0
2018-11-05T01:35:29.248Z,0
2018-11-05T01:36:30.043Z,0
2018-11-05T01:37:31.946Z,0
2018-11-05T01:38:31.191Z,0
2018-11-05T01:39:32.712Z,0
2018-11-05T01:40:35.063Z,0
2018-11-05T01:41:35.408Z,0
2018-11-05T01:42:36.204Z,0
2018-11-05T01:43:37.278Z,0
2018-11-05T07:08:32.322Z,3308
2018-11-05T07:09:33.836Z,2868
2018-11-05T07:10:34.522Z,2972
2018-11-05T07:11:36.320Z,3604
2018-11-05T07:12:36.170Z,3160
2018-11-05T07:13:37.035Z,4348
2018-11-05T07:14:36.804Z,5028
2018-11-05T07:15:38.385Z,3948
2018-11-05T07:16:39.105Z,5300
2018-11-05T07:17:40.887Z,4756
2018-11-05T07:18:43.760Z,3216
2018-11-05T07:19:41.645Z,3400
2018-11-05T07:20:43.138Z,3436
2018-11-05T07:21:44.309Z,3520
2018-11-05T07:22:45.242Z,3692
2018-11-05T07:23:46.090Z,2860
2018-11-05T07:24:47.168Z,2288
2018-11-05T07:25:47.816Z,2348
2018-11-05T07:26:48.622Z,2308
2018-11-05T07:27:50.496Z,2324
2018-11-05T07:28:50.436Z,2292
2018-11-05T07:29:52.323Z,2116
2018-11-05T07:30:53.942Z,2160
2018-11-05T07:31:53.334Z,2168
2018-11-05T07:32:54.900Z,2108
2018-11-05T07:33:57.579Z,2044
2018-11-05T07:35:01.134Z,2040
2018-11-05T07:35:12.026Z,2036
2018-11-05T07:35:23.656Z,2020
2018-11-05T07:35:35.753Z,2008
2018-11-05T07:35:47.609Z,1992
2018-11-05T07:36:47.622Z,1976
2018-11-05T07:37:46.975Z,1952
2018-11-05T07:38:47.506Z,1944
2018-11-05T07:39:49.312Z,1908
2018-11-05T07:40:50.164Z,1816
2018-11-05T07:41:49.969Z,1724
2018-11-05T07:42:50.790Z,1680
2018-11-05T07:43:51.875Z,1680
2018-11-05T07:44:52.959Z,1660
2018-11-05T07:45:53.771Z,1640
2018-11-05T07:46:54.084Z,1640
2018-11-05T07:47:55.446Z,1640
2018-11-05T07:48:55.696Z,1648
2018-11-05T07:49:57.282Z,1668
2018-11-05T07:50:57.781Z,1696
2018-11-05T07:51:58.593Z,1704
2018-11-05T07:52:59.398Z,1744
2018-11-05T07:54:00.485Z,1756
2018-11-05T07:55:01.286Z,1756
2018-11-05T07:56:02.649Z,1764
2018-11-05T07:57:03.449Z,1792
2018-11-05T07:58:04.563Z,1812
2018-11-05T07:59:04.810Z,1932
2018-11-05T08:00:06.175Z,1896
2018-11-05T08:01:06.974Z,1912
2018-11-05T08:02:08.059Z,1932
2018-11-05T08:03:08.858Z,1960
2018-11-05T08:04:09.939Z,1988
2018-11-05T08:05:11.178Z,2040
2018-11-05T08:06:11.431Z,2052
2018-11-05T08:07:12.135Z,2052
2018-11-05T08:08:13.692Z,2068
2018-11-05T08:09:14.490Z,2132
2018-11-05T08:10:15.297Z,2144
2018-11-05T08:11:16.385Z,2108
2018-11-05T08:12:17.468Z,2000
2018-11-05T08:13:18.881Z,1952
2018-11-05T08:14:20.359Z,1964
2018-11-05T08:15:20.166Z,1992
2018-11-05T08:16:21.248Z,2064
2018-11-05T08:17:21.511Z,2104
2018-11-05T08:18:22.315Z,2164
2018-11-05T08:19:24.400Z,2140
2018-11-05T08:20:25.029Z,2168
2018-11-05T08:21:24.781Z,2216
2018-11-05T08:22:26.938Z,2268
2018-11-05T08:23:29.640Z,2308
2018-11-05T08:24:30.368Z,2324
2018-11-05T08:25:30.901Z,2324
2018-11-05T08:26:31.711Z,2360
2018-11-05T08:27:32.734Z,2448
2018-11-05T08:28:34.175Z,2560
2018-11-05T08:29:33.420Z,2692
2018-11-05T08:30:35.229Z,3128
2018-11-05T08:31:36.035Z,3076
2018-11-05T08:32:37.398Z,3192
2018-11-05T08:33:37.919Z,3396
2018-11-05T08:34:39.999Z,3644
2018-11-05T08:35:39.804Z,3884
2018-11-05T08:36:40.613Z,4172
2018-11-05T08:37:44.061Z,4716
2018-11-05T08:38:42.312Z,4956
2018-11-05T08:39:42.835Z,5188
2018-11-05T08:40:46.901Z,5156
2018-11-05T08:40:55.997Z,5168
2018-11-05T08:41:55.838Z,6032
2018-11-05T08:42:57.119Z,7464
2018-11-05T08:43:59.239Z,7056
2018-11-05T08:45:00.052Z,6472
2018-11-05T08:46:00.137Z,6996
2018-11-05T08:47:02.098Z,5384
2018-11-05T08:48:02.179Z,6972
2018-11-05T08:49:02.706Z,7684
2018-11-05T08:50:05.498Z,7784
2018-11-05T08:51:07.235Z,5724
2018-11-05T08:52:06.201Z,5704
2018-11-05T08:53:06.732Z,5612
2018-11-05T08:54:09.643Z,5552
2018-11-05T08:55:08.906Z,5416
2018-11-05T08:56:09.429Z,5612
2018-11-05T08:57:09.961Z,5764
2018-11-05T08:58:10.486Z,6260
2018-11-05T08:59:11.568Z,5932
2018-11-05T09:00:11.650Z,5728
2018-11-05T09:01:14.649Z,5900
2018-11-05T09:02:14.462Z,5896
2018-11-05T09:03:15.559Z,6236
2018-11-05T09:04:16.923Z,6960
2018-11-05T09:05:18.682Z,6200
2018-11-05T09:06:18.309Z,6240
2018-11-05T09:07:19.553Z,4520
2018-11-05T09:08:19.003Z,8496
2018-11-05T09:09:20.251Z,12500
2018-11-05T09:10:24.952Z,11584
2018-11-05T09:11:29.394Z,9560
2018-11-05T09:11:36.148Z,8084
2018-11-05T09:12:35.845Z,8508
2018-11-05T09:13:37.455Z,7196
2018-11-05T09:14:37.707Z,11356
2018-11-05T09:15:37.963Z,16864
2018-11-05T09:16:39.891Z,16096
2018-11-05T09:17:39.420Z,10880
2018-11-05T09:18:40.509Z,10444
2018-11-05T09:19:41.608Z,9312
2018-11-05T09:20:43.189Z,4728
2018-11-05T09:21:44.308Z,4320
2018-11-05T09:22:47.052Z,4344
2018-11-05T09:23:44.561Z,4728
2018-11-05T09:24:45.929Z,7644
2018-11-05T09:25:47.290Z,29024
2018-11-05T09:26:48.106Z,35264
2018-11-05T09:27:50.024Z,42400
2018-11-05T09:28:49.566Z,50048
2018-11-05T09:29:50.653Z,46176
2018-11-05T09:30:51.745Z,24512
2018-11-05T09:31:52.559Z,8212
2018-11-05T09:32:53.103Z,11524
2018-11-05T09:33:53.907Z,10488
2018-11-05T09:34:54.717Z,17952
2018-11-05T09:35:55.525Z,19520
2018-11-05T09:36:56.338Z,20672
2018-11-05T09:37:56.895Z,20320
2018-11-05T09:38:57.702Z,28672
2018-11-05T09:39:59.346Z,29344
2018-11-05T09:41:00.157Z,27136
2018-11-05T09:42:00.696Z,11548
2018-11-05T09:43:01.920Z,13840
2018-11-05T09:44:03.199Z,14220
2018-11-05T09:45:04.010Z,7880
2018-11-05T09:46:05.544Z,8788
2018-11-05T09:47:06.913Z,17344
2018-11-05T09:48:08.284Z,19328
2018-11-05T09:49:08.537Z,10216
2018-11-05T09:50:09.358Z,6516
2018-11-05T09:51:10.227Z,12600
2018-11-05T09:52:12.319Z,27456
2018-11-05T09:53:12.753Z,33824
2018-11-05T09:54:13.845Z,39776
2018-11-05T09:55:14.944Z,48128
2018-11-05T09:56:21.434Z,46080
2018-11-05T09:56:32.716Z,45280
2018-11-05T09:56:44.769Z,44416
2018-11-05T09:56:56.416Z,44576
2018-11-05T09:57:04.697Z,44448
2018-11-05T09:58:05.161Z,36544
2018-11-05T09:59:06.498Z,41344
2018-11-05T10:00:07.434Z,47904
2018-11-05T10:01:08.331Z,50720
2018-11-05T10:02:09.755Z,53376
2018-11-05T10:03:11.609Z,51488
2018-11-05T10:04:12.849Z,49344
2018-11-05T10:05:16.881Z,53600
2018-11-05T10:06:13.857Z,45696
2018-11-05T10:07:14.957Z,42656
2018-11-05T10:08:16.365Z,49344
2018-11-05T10:09:16.626Z,54976
2018-11-05T10:10:20.110Z,54848
2018-11-05T10:11:20.143Z,54816
2018-11-05T10:12:21.237Z,56384
2018-11-05T10:13:21.777Z,58336
2018-11-05T10:14:23.170Z,57280
2018-11-05T10:15:25.077Z,53728
2018-11-05T10:16:31.482Z,49632
2018-11-05T10:16:41.840Z,49344
2018-11-05T10:16:54.129Z,49280
2018-11-05T10:17:05.996Z,49280
2018-11-05T10:17:17.521Z,49280
2018-11-05T10:17:30.919Z,49312
2018-11-05T10:17:42.384Z,49568
2018-11-05T10:17:56.030Z,49952
2018-11-05T10:18:08.370Z,50720
2018-11-05T10:18:20.924Z,51744
2018-11-05T10:18:32.565Z,52352
2018-11-05T10:19:33.407Z,54272
2018-11-05T10:19:45.780Z,54400
2018-11-05T10:19:58.268Z,54400
2018-11-05T10:20:10.383Z,54304
2018-11-05T10:20:22.977Z,54592
2018-11-05T10:20:35.502Z,54656
2018-11-05T10:20:45.630Z,54528
2018-11-05T10:21:45.058Z,48640
2018-11-05T10:22:45.614Z,52928
2018-11-05T10:23:46.515Z,49472
2018-11-05T10:24:48.750Z,49408
2018-11-05T10:25:49.564Z,51808
2018-11-05T10:26:50.932Z,53344
2018-11-05T10:27:51.249Z,53280
2018-11-05T10:28:52.095Z,52928
2018-11-05T10:29:52.832Z,52896
2018-11-05T10:30:52.979Z,53248
2018-11-05T10:31:54.842Z,52480
2018-11-05T10:32:56.608Z,18592
2018-11-05T10:33:57.096Z,52768
2018-11-05T10:34:57.300Z,48640
2018-11-05T10:35:58.413Z,49280
2018-11-05T10:37:01.039Z,43392
2018-11-05T10:38:02.404Z,48704
2018-11-05T10:39:02.657Z,48000
2018-11-05T10:40:05.459Z,45792
2018-11-05T10:41:05.045Z,45440
2018-11-05T10:42:05.644Z,44480
2018-11-05T10:43:06.305Z,37152
2018-11-05T10:44:07.187Z,44672
2018-11-05T10:45:08.184Z,45472
2018-11-05T10:46:09.069Z,42272
2018-11-05T10:47:09.939Z,41344
2018-11-05T10:48:11.033Z,37568
2018-11-05T10:49:11.298Z,33568
2018-11-05T10:50:13.867Z,36576
2018-11-05T10:51:20.894Z,37504
2018-11-05T10:51:29.216Z,39712
2018-11-05T10:52:32.320Z,36000
2018-11-05T10:52:42.818Z,34272
2018-11-05T10:53:42.564Z,32384
2018-11-05T10:54:42.080Z,32000
2018-11-05T10:55:42.132Z,33984
2018-11-05T10:56:42.950Z,34304
2018-11-05T10:57:44.436Z,37280
2018-11-05T10:58:46.110Z,38400
2018-11-05T10:59:44.651Z,38752
2018-11-05T11:00:50.895Z,37568
2018-11-05T11:00:56.708Z,37344
2018-11-05T11:01:57.375Z,35744
2018-11-05T11:02:58.946Z,26176
2018-11-05T11:04:00.322Z,22688
2018-11-05T11:04:59.666Z,33184
2018-11-05T11:06:00.501Z,31424
2018-11-05T11:07:01.036Z,34304
2018-11-05T11:08:02.859Z,34976
2018-11-05T11:09:03.677Z,34496
2018-11-05T11:10:05.122Z,25856
2018-11-05T11:11:05.970Z,10340
2018-11-05T11:12:07.080Z,8084
2018-11-05T11:13:08.477Z,14336
2018-11-05T11:14:10.849Z,13876
2018-11-05T11:15:11.429Z,14304
2018-11-05T11:16:10.967Z,12068
2018-11-05T11:17:12.076Z,18880
2018-11-05T11:18:13.415Z,23168
2018-11-05T11:19:12.997Z,11796
2018-11-05T11:20:14.089Z,6920
2018-11-05T11:21:18.801Z,11100
2018-11-05T11:22:23.294Z,11548
2018-11-05T11:22:30.174Z,12088
2018-11-05T11:23:33.075Z,16384
2018-11-05T11:23:44.792Z,15456
2018-11-05T11:23:57.096Z,15776
2018-11-05T11:24:08.027Z,15008
2018-11-05T11:24:20.246Z,12700
2018-11-05T11:24:32.155Z,13108
2018-11-05T11:24:46.003Z,12700
2018-11-05T11:24:57.779Z,12704
2018-11-05T11:25:08.700Z,12260
2018-11-05T11:25:19.977Z,12152
2018-11-05T11:26:18.576Z,9032
2018-11-05T11:27:19.069Z,5872
2018-11-05T11:28:21.320Z,9388
2018-11-05T11:29:24.096Z,17056
2018-11-05T11:29:33.289Z,16384
2018-11-05T11:30:32.864Z,17536
2018-11-05T11:31:33.684Z,12724
2018-11-05T11:32:38.825Z,14688
2018-11-05T11:33:36.754Z,20416
2018-11-05T11:34:39.184Z,22560
2018-11-05T11:35:39.278Z,22560
2018-11-05T11:36:41.847Z,19008
2018-11-05T11:37:42.570Z,17056
2018-11-05T11:38:43.101Z,16000
2018-11-05T11:39:44.919Z,15552
2018-11-05T11:40:45.269Z,16000
2018-11-05T11:41:46.535Z,13424
2018-11-05T11:42:48.355Z,10432
2018-11-05T11:43:48.918Z,14368
2018-11-05T11:44:50.797Z,14112
2018-11-05T11:45:50.941Z,13364
2018-11-05T11:46:51.869Z,13472
2018-11-05T11:47:52.692Z,14912
2018-11-05T11:48:53.509Z,16704
2018-11-05T11:49:54.047Z,16736
2018-11-05T11:50:58.114Z,14528
2018-11-05T11:51:09.702Z,14152
2018-11-05T11:52:10.098Z,14144
2018-11-05T11:53:11.019Z,11000
2018-11-05T11:54:12.294Z,10004
2018-11-05T11:55:13.117Z,12080
2018-11-05T11:56:13.650Z,10004
2018-11-05T11:57:15.081Z,8732
2018-11-05T11:58:16.651Z,10804
2018-11-05T11:59:16.191Z,12072
2018-11-05T12:00:18.308Z,6628
2018-11-05T12:01:18.173Z,10176
2018-11-05T12:02:20.943Z,12172
2018-11-05T12:03:21.152Z,12288
2018-11-05T12:04:22.759Z,11256
2018-11-05T12:05:24.476Z,10116
2018-11-05T12:06:22.987Z,9688
2018-11-05T12:07:23.801Z,8892
2018-11-05T12:08:25.273Z,8088
2018-11-05T12:09:26.162Z,7328
2018-11-05T12:10:26.516Z,7180
2018-11-05T12:11:28.036Z,7332
2018-11-05T12:12:28.722Z,2160
2018-11-05T12:13:29.473Z,5040
2018-11-05T12:14:31.543Z,6700
2018-11-05T12:15:31.649Z,7068
2018-11-05T12:16:33.019Z,6912
2018-11-05T12:17:33.285Z,6848
2018-11-05T12:18:35.417Z,6912
2018-11-05T12:19:35.912Z,7196
2018-11-05T12:20:37.582Z,7228
2018-11-05T12:21:37.119Z,7132
2018-11-05T12:22:38.990Z,6844
2018-11-05T12:23:38.803Z,6972
2018-11-05T12:24:40.044Z,7152
2018-11-05T12:25:40.737Z,7208
2018-11-05T12:26:42.043Z,7216
2018-11-05T12:27:41.962Z,7212
2018-11-05T12:28:42.776Z,7240
2018-11-05T12:29:44.426Z,7276
2018-11-05T12:30:45.243Z,7220
2018-11-05T12:31:46.053Z,7196
2018-11-05T12:32:47.643Z,7156
2018-11-05T12:33:47.459Z,7152
2018-11-05T12:34:48.272Z,7248
2018-11-05T12:35:48.809Z,7300
2018-11-05T12:36:50.181Z,7356
2018-11-05T12:37:50.723Z,7248
2018-11-05T12:38:52.499Z,6976
2018-11-05T12:39:52.810Z,7092
2018-11-05T12:40:53.625Z,7296
2018-11-05T12:41:54.738Z,7340
2018-11-05T12:42:55.725Z,7172
2018-11-05T12:44:01.133Z,7180
2018-11-05T12:44:08.912Z,7268
2018-11-05T12:45:11.449Z,7500
2018-11-05T12:46:10.469Z,7440
2018-11-05T12:47:11.559Z,7396
2018-11-05T12:48:11.651Z,7432
2018-11-05T12:49:12.463Z,7220
2018-11-05T12:50:13.839Z,7244
2018-11-05T12:51:13.689Z,7416
2018-11-05T12:52:14.236Z,7312
2018-11-05T12:53:14.771Z,7472
2018-11-05T12:54:16.033Z,7416
2018-11-05T12:55:17.326Z,7480
2018-11-05T12:56:18.706Z,7640
2018-11-05T12:57:19.242Z,7628
2018-11-05T12:58:21.336Z,7660
2018-11-05T12:59:21.894Z,7756
2018-11-05T13:00:22.424Z,7704
2018-11-05T13:01:23.965Z,7504
2018-11-05T13:02:25.175Z,7532
2018-11-05T13:03:26.003Z,7772
2018-11-05T13:04:26.540Z,7800
2018-11-05T13:05:28.371Z,7792
2018-11-05T13:06:28.912Z,7780
2018-11-05T13:07:30.160Z,7796
2018-11-05T13:08:29.712Z,7796
2018-11-05T13:09:31.359Z,7724
2018-11-05T13:10:30.894Z,7676
2018-11-05T13:11:31.707Z,7640
2018-11-05T13:12:33.354Z,7680
2018-11-05T13:13:34.168Z,7668
2018-11-05T13:14:35.546Z,7648
2018-11-05T13:15:35.420Z,7652
2018-11-05T13:16:36.792Z,7596
2018-11-05T13:17:37.615Z,7544
2018-11-05T13:18:37.433Z,7544
2018-11-05T13:19:38.347Z,7540
2018-11-05T13:20:38.880Z,7500
2018-11-05T13:21:39.417Z,7432
2018-11-05T13:22:42.237Z,7400
2018-11-05T13:23:40.585Z,7408
2018-11-05T13:24:42.302Z,7412
2018-11-05T13:25:41.887Z,7360
2018-11-05T13:26:43.255Z,7268
2018-11-05T13:27:44.362Z,7224
2018-11-05T13:28:45.768Z,6876
2018-11-05T13:29:51.056Z,6904
2018-11-05T13:29:59.845Z,7020
2018-11-05T13:30:59.078Z,7172
2018-11-05T13:31:59.169Z,7216
2018-11-05T13:33:00.283Z,7208
2018-11-05T13:34:00.821Z,7220
2018-11-05T13:35:01.922Z,7172
2018-11-05T13:36:02.462Z,7144
2018-11-05T13:37:04.692Z,7072
2018-11-05T13:38:06.823Z,7056
2018-11-05T13:39:04.984Z,6984
2018-11-05T13:40:06.801Z,6908
2018-11-05T13:41:07.380Z,6940
2018-11-05T13:42:07.913Z,6908
2018-11-05T13:43:08.740Z,6748
2018-11-05T13:44:09.277Z,6804
2018-11-05T13:45:10.619Z,6896
2018-11-05T13:46:16.578Z,6860
2018-11-05T13:46:27.203Z,6948
2018-11-05T13:46:40.746Z,7024
2018-11-05T13:47:17.562Z,7068
2018-11-05T13:49:04.529Z,7116
2018-11-05T13:49:22.611Z,7128
2018-11-05T13:49:33.979Z,7160
2018-11-05T13:49:43.177Z,7132
2018-11-05T13:50:41.233Z,7124
2018-11-05T13:51:41.536Z,7192
2018-11-05T13:52:44.954Z,7220
2018-11-05T13:53:44.046Z,7200
2018-11-05T13:54:46.977Z,7216
2018-11-05T13:55:46.126Z,7152
2018-11-05T13:56:47.057Z,7260
2018-11-05T13:57:48.948Z,7240
2018-11-05T13:58:48.564Z,7112
2018-11-05T13:59:48.824Z,7208
2018-11-05T14:00:49.398Z,7212
2018-11-05T14:01:50.490Z,7208
2018-11-05T14:02:51.862Z,7180
2018-11-05T14:03:52.509Z,7168
2018-11-05T14:04:52.766Z,7188
2018-11-05T14:05:55.677Z,7136
2018-11-05T14:06:56.689Z,7112
2018-11-05T14:07:57.624Z,7072
2018-11-05T14:08:57.751Z,7020
2018-11-05T14:09:59.009Z,7008
2018-11-05T14:10:59.753Z,7012
2018-11-05T14:12:00.871Z,6996
2018-11-05T14:13:02.244Z,7008
2018-11-05T14:14:03.539Z,6996
2018-11-05T14:15:03.793Z,7004
2018-11-05T14:16:05.050Z,7036
2018-11-05T14:17:06.589Z,7040
2018-11-05T14:18:08.624Z,7032
2018-11-05T14:19:09.440Z,6980
2018-11-05T14:20:10.254Z,6888
2018-11-05T14:21:11.807Z,6848
2018-11-05T14:22:12.629Z,6840
2018-11-05T14:23:13.723Z,6956
2018-11-05T14:24:14.263Z,7004
2018-11-05T14:25:16.146Z,7008
2018-11-05T14:26:18.590Z,7040
2018-11-05T14:27:18.797Z,7028
2018-11-05T14:28:21.258Z,7060
2018-11-05T14:29:24.410Z,7084
2018-11-05T14:29:36.160Z,7100
2018-11-05T14:29:47.264Z,7096
2018-11-05T14:29:58.616Z,7084
2018-11-05T14:30:09.627Z,7088
2018-11-05T14:31:08.517Z,6984
2018-11-05T14:32:10.582Z,6984
2018-11-05T14:33:10.288Z,6944
2018-11-05T14:34:10.395Z,6872
2018-11-05T14:35:10.493Z,6864
2018-11-05T14:36:11.589Z,6848
2018-11-05T14:37:13.354Z,6752
2018-11-05T14:38:14.172Z,6672
2018-11-05T14:39:15.154Z,6584
2018-11-05T14:40:15.052Z,6536
2018-11-05T14:41:16.147Z,6480
2018-11-05T14:42:16.523Z,6428
2018-11-05T14:43:18.362Z,6568
2018-11-05T14:44:17.271Z,7816
2018-11-05T14:45:18.643Z,10208
2018-11-05T14:46:19.199Z,11500
2018-11-05T14:47:20.569Z,11316
2018-11-05T14:48:23.541Z,10088
2018-11-05T14:49:22.972Z,9260
2018-11-05T14:50:24.717Z,9072
2018-11-05T14:51:24.720Z,8900
2018-11-05T14:52:25.254Z,8724
2018-11-05T14:53:26.063Z,8344
2018-11-05T14:54:26.597Z,7988
2018-11-05T14:55:27.406Z,7676
2018-11-05T14:56:27.940Z,7640
2018-11-05T14:57:29.454Z,7572
2018-11-05T14:58:29.663Z,7252
2018-11-05T14:59:30.485Z,6584
2018-11-05T15:00:31.303Z,5960
2018-11-05T15:01:32.281Z,5136
2018-11-05T15:02:33.953Z,3952
2018-11-05T15:03:34.729Z,2464
2018-11-05T15:04:35.026Z,1776
2018-11-05T15:05:35.797Z,1476
2018-11-05T15:06:35.875Z,1336
2018-11-05T15:07:37.678Z,1212
2018-11-05T15:08:38.376Z,1068
2018-11-05T15:09:38.917Z,984
2018-11-05T15:10:39.719Z,948
2018-11-05T15:11:40.552Z,920
2018-11-05T15:12:41.365Z,892
2018-11-05T15:13:41.615Z,868
2018-11-05T15:14:42.421Z,840
2018-11-05T15:15:43.509Z,820
2018-11-05T15:16:43.761Z,796
2018-11-05T15:17:45.408Z,772
2018-11-05T15:18:50.630Z,744
2018-11-05T15:19:49.869Z,720
2018-11-05T15:20:50.461Z,696
2018-11-05T15:21:50.632Z,672
2018-11-05T15:22:51.168Z,644
2018-11-05T15:23:52.975Z,628
2018-11-05T15:24:53.508Z,600
2018-11-05T15:25:53.947Z,572
2018-11-05T15:26:55.952Z,548
2018-11-05T15:27:55.654Z,524
2018-11-05T15:28:57.028Z,500
2018-11-05T15:29:57.557Z,484
2018-11-05T15:30:58.644Z,460
2018-11-05T15:31:59.795Z,436
2018-11-05T15:33:01.708Z,416
2018-11-05T15:34:02.884Z,392
2018-11-05T15:35:02.973Z,372
2018-11-05T15:36:03.786Z,348
2018-11-05T15:37:04.596Z,328
2018-11-05T15:38:05.678Z,308
2018-11-05T15:39:06.218Z,288
2018-11-05T15:40:07.304Z,272
2018-11-05T15:41:08.664Z,256
2018-11-05T15:42:08.934Z,240
2018-11-05T15:43:09.464Z,228
2018-11-05T15:44:10.902Z,212
2018-11-05T15:45:11.829Z,204
2018-11-05T15:46:12.466Z,192
2018-11-05T15:47:13.552Z,180
2018-11-05T15:48:14.191Z,168
2018-11-05T15:49:15.278Z,156
2018-11-05T15:50:15.451Z,144
2018-11-05T15:51:17.022Z,132
2018-11-05T15:52:46.291Z,112
2018-11-05T15:53:45.064Z,100
2018-11-05T15:54:44.527Z,88
2018-11-05T15:55:45.342Z,76
2018-11-05T15:56:46.207Z,64
2018-11-05T15:57:47.283Z,56
2018-11-05T15:58:47.814Z,48
2018-11-05T15:59:49.179Z,44
2018-11-05T16:00:49.987Z,36
2018-11-05T16:01:51.072Z,28
2018-11-05T16:02:52.257Z,28
2018-11-05T16:03:53.234Z,24
2018-11-05T16:04:53.319Z,20
2018-11-05T16:05:54.141Z,16
2018-11-05T16:06:56.531Z,12
2018-11-05T16:07:56.065Z,12
2018-11-05T16:08:56.589Z,12
2018-11-05T16:09:58.674Z,8
2018-11-05T16:10:59.050Z,8
2018-11-05T16:11:58.577Z,8
2018-11-05T16:12:59.940Z,4
2018-11-05T16:14:00.920Z,4
2018-11-05T16:15:03.160Z,4
2018-11-05T16:16:05.055Z,4
2018-11-05T16:17:04.856Z,4
2018-11-05T16:18:05.661Z,0
2018-11-05T16:19:05.904Z,0
2018-11-05T16:20:06.711Z,4
2018-11-05T16:21:06.959Z,4
2018-11-05T16:22:07.778Z,4
2018-11-05T16:23:08.857Z,0
2018-11-05T16:24:10.864Z,0
2018-11-05T16:25:10.375Z,0
2018-11-05T16:26:11.176Z,0
2018-11-05T16:27:11.700Z,0
2018-11-05T16:28:13.069Z,0
2018-11-05T16:29:14.424Z,0
2018-11-05T16:30:14.953Z,0
2018-11-05T16:31:15.478Z,0
2018-11-05T16:32:18.262Z,0
2018-11-05T16:33:17.684Z,0
2018-11-05T16:34:18.497Z,0
2018-11-05T16:35:20.228Z,0
2018-11-05T16:36:20.510Z,0
2018-11-05T16:37:21.157Z,0
2018-11-05T16:38:21.789Z,0
2018-11-05T16:39:22.187Z,0
2018-11-05T16:40:22.677Z,0
2018-11-05T16:41:23.478Z,0
2018-11-05T16:42:24.302Z,0
2018-11-05T16:43:25.107Z,0
2018-11-05T16:44:25.805Z,0
2018-11-05T16:45:27.887Z,4
2018-11-05T16:46:28.967Z,0
2018-11-05T16:47:30.352Z,0
2018-11-05T16:48:31.693Z,0
2018-11-05T16:49:32.493Z,0
2018-11-05T16:50:34.136Z,0
2018-11-05T16:51:35.472Z,0
2018-11-05T16:52:36.392Z,0
2018-11-05T16:53:37.920Z,0
2018-11-05T16:54:39.387Z,0
2018-11-05T16:55:44.395Z,0
2018-11-05T16:55:53.730Z,0
2018-11-05T16:56:56.197Z,0
2018-11-05T16:57:07.640Z,0
2018-11-05T16:57:20.064Z,0
2018-11-05T16:57:32.554Z,0
2018-11-05T16:57:42.797Z,0
2018-11-05T16:58:41.932Z,0
2018-11-05T16:59:42.457Z,0
2018-11-05T17:00:45.063Z,0
2018-11-05T17:01:47.151Z,0
2018-11-05T17:02:48.060Z,0
2018-11-05T17:03:46.288Z,0
2018-11-05T17:04:47.652Z,0
2018-11-05T17:05:48.286Z,0
2018-11-05T17:06:48.085Z,0
2018-11-05T17:07:49.335Z,0
2018-11-05T17:08:51.255Z,0
2018-11-05T17:09:51.059Z,0
2018-11-05T17:10:52.419Z,0
2018-11-05T17:11:52.667Z,0
2018-11-05T17:12:57.645Z,8
2018-11-05T17:13:06.349Z,8
2018-11-05T17:14:07.215Z,8
2018-11-05T17:15:07.025Z,8
2018-11-05T17:16:08.110Z,8
2018-11-05T17:17:14.935Z,8
2018-11-05T17:17:23.325Z,8
2018-11-05T17:18:21.741Z,8
2018-11-05T17:19:23.105Z,8
2018-11-05T17:20:23.908Z,8
2018-11-05T17:21:24.433Z,8
2018-11-05T17:22:25.954Z,8
2018-11-05T17:23:26.759Z,8
2018-11-05T17:24:32.825Z,8
2018-11-05T17:24:39.321Z,8
2018-11-05T17:25:40.582Z,8
2018-11-05T17:26:41.669Z,4
2018-11-05T17:27:43.047Z,8
2018-11-05T17:28:42.578Z,8
2018-11-05T17:29:43.379Z,4
2018-11-05T17:30:44.180Z,4
2018-11-05T17:31:44.983Z,4
2018-11-05T17:32:46.367Z,8
2018-11-05T17:33:47.382Z,4
2018-11-05T17:34:48.296Z,4
2018-11-05T17:35:48.779Z,4
2018-11-05T17:36:50.246Z,4
2018-11-05T17:37:50.335Z,8
2018-11-05T17:38:51.419Z,8
2018-11-05T17:39:52.548Z,8
2018-11-05T17:40:53.238Z,8
2018-11-05T17:41:54.356Z,8
2018-11-05T17:42:55.437Z,8
2018-11-05T17:43:55.245Z,8
2018-11-05T17:44:56.466Z,8
2018-11-05T17:45:56.998Z,8
2018-11-05T17:46:57.802Z,8
2018-11-05T17:47:59.174Z,8
2018-11-05T17:48:59.815Z,8
2018-11-05T17:50:00.890Z,8
2018-11-05T17:51:01.709Z,4
2018-11-05T17:52:01.232Z,8
2018-11-05T17:53:02.314Z,4
2018-11-05T17:54:02.559Z,8
2018-11-05T17:55:03.638Z,8
2018-11-05T17:56:04.671Z,8
2018-11-05T17:57:07.777Z,8
2018-11-05T17:58:06.295Z,8
2018-11-05T17:59:07.392Z,8
2018-11-05T18:00:08.450Z,8
2018-11-05T18:01:08.974Z,8
2018-11-05T18:02:09.806Z,8
2018-11-05T18:03:10.900Z,8
2018-11-05T18:04:12.182Z,8
2018-11-05T18:05:13.785Z,4
2018-11-05T18:06:13.769Z,8
2018-11-05T18:07:14.877Z,8
2018-11-05T18:08:15.676Z,8
2018-11-05T18:09:17.347Z,8
2018-11-05T18:10:17.604Z,8
2018-11-05T18:11:19.204Z,8
2018-11-05T18:12:20.490Z,8
2018-11-05T18:13:21.348Z,8
2018-11-05T18:14:23.069Z,8
2018-11-05T18:15:24.311Z,4
2018-11-05T18:16:24.333Z,4
2018-11-05T18:17:25.976Z,8
2018-11-05T18:18:25.778Z,8
2018-11-05T18:19:28.865Z,8
2018-11-05T18:19:43.210Z,8
2018-11-05T18:19:52.800Z,8
2018-11-05T18:20:52.566Z,8
2018-11-05T18:21:52.386Z,8
2018-11-05T18:22:54.016Z,8
2018-11-05T18:23:54.945Z,8
2018-11-05T18:24:54.745Z,8
2018-11-05T18:25:56.384Z,8